sensor_id;sensor_type;location;lat;lon;timestamp;P1;durP1;ratioP1;P2;durP2;ratioP2
33794;SDS011;51430;52.242;21.118;2022-07-22T00:01:31;11.90;;;7.50;;
33794;SDS011;51430;52.242;21.118;2022-07-22T00:03:59;12.30;;;8.10;;
33794;SDS011;51430;52.242;21.118;2022-07-22T00:06:30;11.80;;;7.40;;
33794;SDS011;51430;52.242;21.118;2022-07-22T00:08:59;15.10;;;7.50;;
33794;SDS011;51430;52.242;21.118;2022-07-22T00:11:27;11.30;;;7.90;;
33794;SDS011;51430;52.242;21.118;2022-07-22T00:13:55;13.00;;;8.70;;
33794;SDS011;51430;52.242;21.118;2022-07-22T00:16:23;9.60;;;8.50;;
33794;SDS011;51430;52.242;21.118;2022-07-22T00:18:51;15.50;;;7.80;;
33794;SDS011;51430;52.242;21.118;2022-07-22T00:21:20;11.90;;;8.10;;
33794;SDS011;51430;52.242;21.118;2022-07-22T00:23:48;11.30;;;8.00;;
33794;SDS011;51430;52.242;21.118;2022-07-22T00:26:16;9.50;;;8.40;;
33794;SDS011;51430;52.242;21.118;2022-07-22T00:28:44;12.50;;;8.60;;
33794;SDS011;51430;52.242;21.118;2022-07-22T00:31:12;12.40;;;8.00;;
33794;SDS011;51430;52.242;21.118;2022-07-22T00:33:40;9.70;;;8.50;;
33794;SDS011;51430;52.242;21.118;2022-07-22T00:36:09;12.10;;;8.50;;
33794;SDS011;51430;52.242;21.118;2022-07-22T00:38:38;11.70;;;8.70;;
33794;SDS011;51430;52.242;21.118;2022-07-22T00:41:06;11.30;;;8.70;;
33794;SDS011;51430;52.242;21.118;2022-07-22T00:43:54;14.50;;;8.70;;
33794;SDS011;51430;52.242;21.118;2022-07-22T00:46:26;9.30;;;8.40;;
33794;SDS011;51430;52.242;21.118;2022-07-22T00:48:56;11.40;;;8.80;;
33794;SDS011;51430;52.242;21.118;2022-07-22T00:51:28;14.20;;;9.30;;
33794;SDS011;51430;52.242;21.118;2022-07-22T00:53:58;9.40;;;8.50;;
33794;SDS011;51430;52.242;21.118;2022-07-22T00:56:27;15.60;;;9.70;;
33794;SDS011;51430;52.242;21.118;2022-07-22T00:58:56;11.90;;;9.50;;
33794;SDS011;51430;52.242;21.118;2022-07-22T01:01:27;12.40;;;9.60;;
33794;SDS011;51430;52.242;21.118;2022-07-22T01:03:55;11.90;;;9.60;;
33794;SDS011;51430;52.242;21.118;2022-07-22T01:06:29;11.80;;;9.40;;
33794;SDS011;51430;52.242;21.118;2022-07-22T01:08:58;13.20;;;9.90;;
33794;SDS011;51430;52.242;21.118;2022-07-22T01:11:27;13.80;;;10.00;;
33794;SDS011;51430;52.242;21.118;2022-07-22T01:13:55;13.30;;;9.50;;
33794;SDS011;51430;52.242;21.118;2022-07-22T01:16:24;11.30;;;10.00;;
33794;SDS011;51430;52.242;21.118;2022-07-22T01:18:53;10.90;;;9.80;;
33794;SDS011;51430;52.242;21.118;2022-07-22T01:21:22;15.10;;;10.70;;
33794;SDS011;51430;52.242;21.118;2022-07-22T01:23:50;13.50;;;10.20;;
33794;SDS011;51430;52.242;21.118;2022-07-22T01:26:18;15.30;;;9.90;;
33794;SDS011;51430;52.242;21.118;2022-07-22T01:28:47;15.10;;;10.00;;
33794;SDS011;51430;52.242;21.118;2022-07-22T01:31:14;13.40;;;10.80;;
33794;SDS011;51430;52.242;21.118;2022-07-22T01:33:43;13.90;;;10.50;;
33794;SDS011;51430;52.242;21.118;2022-07-22T01:36:11;16.50;;;10.50;;
33794;SDS011;51430;52.242;21.118;2022-07-22T01:38:39;13.00;;;10.70;;
33794;SDS011;51430;52.242;21.118;2022-07-22T01:41:07;12.00;;;10.30;;
33794;SDS011;51430;52.242;21.118;2022-07-22T01:43:35;12.30;;;9.90;;
33794;SDS011;51430;52.242;21.118;2022-07-22T01:46:03;14.90;;;10.20;;
33794;SDS011;51430;52.242;21.118;2022-07-22T01:48:32;13.30;;;10.50;;
33794;SDS011;51430;52.242;21.118;2022-07-22T01:51:00;14.10;;;10.90;;
33794;SDS011;51430;52.242;21.118;2022-07-22T01:53:28;13.80;;;11.00;;
33794;SDS011;51430;52.242;21.118;2022-07-22T01:55:56;15.60;;;10.50;;
33794;SDS011;51430;52.242;21.118;2022-07-22T01:58:24;16.50;;;11.10;;
33794;SDS011;51430;52.242;21.118;2022-07-22T02:00:52;15.80;;;10.90;;
33794;SDS011;51430;52.242;21.118;2022-07-22T02:03:20;12.50;;;10.80;;
33794;SDS011;51430;52.242;21.118;2022-07-22T02:05:49;15.40;;;11.30;;
33794;SDS011;51430;52.242;21.118;2022-07-22T02:08:17;15.70;;;10.80;;
33794;SDS011;51430;52.242;21.118;2022-07-22T02:10:45;14.60;;;10.90;;
33794;SDS011;51430;52.242;21.118;2022-07-22T02:13:13;13.80;;;10.60;;
33794;SDS011;51430;52.242;21.118;2022-07-22T02:15:42;12.10;;;10.90;;
33794;SDS011;51430;52.242;21.118;2022-07-22T02:18:14;15.20;;;10.80;;
33794;SDS011;51430;52.242;21.118;2022-07-22T02:20:53;13.30;;;11.10;;
33794;SDS011;51430;52.242;21.118;2022-07-22T02:23:21;13.90;;;9.40;;
33794;SDS011;51430;52.242;21.118;2022-07-22T02:25:49;11.40;;;10.00;;
33794;SDS011;51430;52.242;21.118;2022-07-22T02:28:17;17.30;;;10.30;;
33794;SDS011;51430;52.242;21.118;2022-07-22T02:30:45;12.40;;;10.20;;
33794;SDS011;51430;52.242;21.118;2022-07-22T02:33:13;12.60;;;10.40;;
33794;SDS011;51430;52.242;21.118;2022-07-22T02:35:43;13.80;;;10.70;;
33794;SDS011;51430;52.242;21.118;2022-07-22T02:38:11;15.40;;;9.80;;
33794;SDS011;51430;52.242;21.118;2022-07-22T02:40:40;12.90;;;10.60;;
33794;SDS011;51430;52.242;21.118;2022-07-22T02:43:08;12.20;;;10.30;;
33794;SDS011;51430;52.242;21.118;2022-07-22T02:45:35;13.70;;;10.10;;
33794;SDS011;51430;52.242;21.118;2022-07-22T02:48:04;14.50;;;10.90;;
33794;SDS011;51430;52.242;21.118;2022-07-22T02:50:32;12.00;;;10.80;;
33794;SDS011;51430;52.242;21.118;2022-07-22T02:53:00;14.60;;;10.30;;
33794;SDS011;51430;52.242;21.118;2022-07-22T02:55:28;16.60;;;10.90;;
33794;SDS011;51430;52.242;21.118;2022-07-22T02:57:56;15.40;;;11.10;;
33794;SDS011;51430;52.242;21.118;2022-07-22T03:00:24;15.50;;;10.10;;
33794;SDS011;51430;52.242;21.118;2022-07-22T03:02:52;13.60;;;10.90;;
33794;SDS011;51430;52.242;21.118;2022-07-22T03:05:20;12.30;;;11.00;;
33794;SDS011;51430;52.242;21.118;2022-07-22T03:07:48;12.00;;;10.50;;
33794;SDS011;51430;52.242;21.118;2022-07-22T03:10:16;12.50;;;11.00;;
33794;SDS011;51430;52.242;21.118;2022-07-22T03:12:44;15.60;;;11.50;;
33794;SDS011;51430;52.242;21.118;2022-07-22T03:15:12;13.90;;;11.10;;
33794;SDS011;51430;52.242;21.118;2022-07-22T03:17:41;14.10;;;11.20;;
33794;SDS011;51430;52.242;21.118;2022-07-22T03:20:10;14.80;;;10.90;;
33794;SDS011;51430;52.242;21.118;2022-07-22T03:22:38;14.40;;;11.60;;
33794;SDS011;51430;52.242;21.118;2022-07-22T03:25:06;16.90;;;11.60;;
33794;SDS011;51430;52.242;21.118;2022-07-22T03:27:34;13.80;;;11.10;;
33794;SDS011;51430;52.242;21.118;2022-07-22T03:30:03;14.30;;;10.80;;
33794;SDS011;51430;52.242;21.118;2022-07-22T03:32:32;12.40;;;10.70;;
33794;SDS011;51430;52.242;21.118;2022-07-22T03:35:00;14.30;;;10.30;;
33794;SDS011;51430;52.242;21.118;2022-07-22T03:37:31;12.10;;;10.90;;
33794;SDS011;51430;52.242;21.118;2022-07-22T03:39:59;12.40;;;10.80;;
33794;SDS011;51430;52.242;21.118;2022-07-22T03:42:27;12.30;;;11.10;;
33794;SDS011;51430;52.242;21.118;2022-07-22T03:44:55;13.10;;;11.20;;
33794;SDS011;51430;52.242;21.118;2022-07-22T03:47:23;14.20;;;10.90;;
33794;SDS011;51430;52.242;21.118;2022-07-22T03:49:52;17.50;;;11.40;;
33794;SDS011;51430;52.242;21.118;2022-07-22T03:52:20;12.40;;;11.10;;
33794;SDS011;51430;52.242;21.118;2022-07-22T03:54:48;14.90;;;10.90;;
33794;SDS011;51430;52.242;21.118;2022-07-22T03:57:16;13.20;;;11.20;;
33794;SDS011;51430;52.242;21.118;2022-07-22T03:59:44;12.40;;;11.10;;
33794;SDS011;51430;52.242;21.118;2022-07-22T04:02:12;11.70;;;10.30;;
33794;SDS011;51430;52.242;21.118;2022-07-22T04:04:40;13.90;;;12.30;;
33794;SDS011;51430;52.242;21.118;2022-07-22T04:07:08;14.00;;;11.70;;
33794;SDS011;51430;52.242;21.118;2022-07-22T04:09:36;17.70;;;11.30;;
33794;SDS011;51430;52.242;21.118;2022-07-22T04:12:04;12.80;;;11.10;;
33794;SDS011;51430;52.242;21.118;2022-07-22T04:14:32;17.00;;;12.40;;
33794;SDS011;51430;52.242;21.118;2022-07-22T04:17:00;17.70;;;12.20;;
33794;SDS011;51430;52.242;21.118;2022-07-22T04:19:28;21.20;;;12.80;;
33794;SDS011;51430;52.242;21.118;2022-07-22T04:21:57;17.50;;;13.40;;
33794;SDS011;51430;52.242;21.118;2022-07-22T04:24:25;13.30;;;11.10;;
33794;SDS011;51430;52.242;21.118;2022-07-22T04:26:53;13.70;;;11.00;;
33794;SDS011;51430;52.242;21.118;2022-07-22T04:29:21;13.50;;;11.30;;
33794;SDS011;51430;52.242;21.118;2022-07-22T04:31:49;16.80;;;12.00;;
33794;SDS011;51430;52.242;21.118;2022-07-22T04:34:17;12.90;;;11.60;;
33794;SDS011;51430;52.242;21.118;2022-07-22T04:36:46;18.40;;;10.90;;
33794;SDS011;51430;52.242;21.118;2022-07-22T04:39:14;11.90;;;10.70;;
33794;SDS011;51430;52.242;21.118;2022-07-22T04:41:42;13.90;;;10.90;;
33794;SDS011;51430;52.242;21.118;2022-07-22T04:44:10;12.10;;;10.70;;
33794;SDS011;51430;52.242;21.118;2022-07-22T04:46:38;16.50;;;11.50;;
33794;SDS011;51430;52.242;21.118;2022-07-22T04:49:06;12.70;;;11.10;;
33794;SDS011;51430;52.242;21.118;2022-07-22T04:51:34;15.90;;;10.40;;
33794;SDS011;51430;52.242;21.118;2022-07-22T04:54:02;16.60;;;10.70;;
33794;SDS011;51430;52.242;21.118;2022-07-22T04:56:33;14.10;;;10.50;;
33794;SDS011;51430;52.242;21.118;2022-07-22T04:59:02;15.60;;;10.30;;
33794;SDS011;51430;52.242;21.118;2022-07-22T05:01:32;12.10;;;10.30;;
33794;SDS011;51430;52.242;21.118;2022-07-22T05:04:00;12.50;;;9.90;;
33794;SDS011;51430;52.242;21.118;2022-07-22T05:06:28;12.00;;;10.90;;
33794;SDS011;51430;52.242;21.118;2022-07-22T05:08:56;13.00;;;9.50;;
33794;SDS011;51430;52.242;21.118;2022-07-22T05:11:25;12.50;;;9.60;;
33794;SDS011;51430;52.242;21.118;2022-07-22T05:13:53;13.50;;;9.10;;
33794;SDS011;51430;52.242;21.118;2022-07-22T05:16:21;12.10;;;9.20;;
33794;SDS011;51430;52.242;21.118;2022-07-22T05:18:49;16.70;;;8.40;;
33794;SDS011;51430;52.242;21.118;2022-07-22T05:21:17;14.00;;;8.80;;
33794;SDS011;51430;52.242;21.118;2022-07-22T05:23:45;14.00;;;8.80;;
33794;SDS011;51430;52.242;21.118;2022-07-22T05:26:13;13.60;;;7.90;;
33794;SDS011;51430;52.242;21.118;2022-07-22T05:28:41;11.80;;;8.40;;
33794;SDS011;51430;52.242;21.118;2022-07-22T05:31:09;13.50;;;8.00;;
33794;SDS011;51430;52.242;21.118;2022-07-22T05:33:37;11.60;;;6.90;;
33794;SDS011;51430;52.242;21.118;2022-07-22T05:36:05;10.80;;;7.60;;
33794;SDS011;51430;52.242;21.118;2022-07-22T05:38:34;11.80;;;7.20;;
33794;SDS011;51430;52.242;21.118;2022-07-22T05:41:03;15.60;;;7.40;;
33794;SDS011;51430;52.242;21.118;2022-07-22T05:43:31;9.70;;;6.20;;
33794;SDS011;51430;52.242;21.118;2022-07-22T05:45:59;9.10;;;6.30;;
33794;SDS011;51430;52.242;21.118;2022-07-22T05:48:27;7.80;;;6.10;;
33794;SDS011;51430;52.242;21.118;2022-07-22T05:50:56;8.30;;;5.50;;
33794;SDS011;51430;52.242;21.118;2022-07-22T05:53:24;9.90;;;6.20;;
33794;SDS011;51430;52.242;21.118;2022-07-22T05:55:52;8.80;;;5.30;;
33794;SDS011;51430;52.242;21.118;2022-07-22T05:58:20;12.10;;;5.80;;
33794;SDS011;51430;52.242;21.118;2022-07-22T06:00:48;10.40;;;6.00;;
33794;SDS011;51430;52.242;21.118;2022-07-22T06:03:16;11.40;;;6.50;;
33794;SDS011;51430;52.242;21.118;2022-07-22T06:05:45;10.50;;;6.30;;
33794;SDS011;51430;52.242;21.118;2022-07-22T06:08:14;9.80;;;5.80;;
33794;SDS011;51430;52.242;21.118;2022-07-22T06:10:42;8.20;;;5.70;;
33794;SDS011;51430;52.242;21.118;2022-07-22T06:13:10;9.00;;;6.20;;
33794;SDS011;51430;52.242;21.118;2022-07-22T06:15:39;8.50;;;5.90;;
33794;SDS011;51430;52.242;21.118;2022-07-22T06:18:07;9.30;;;5.90;;
33794;SDS011;51430;52.242;21.118;2022-07-22T06:20:35;11.30;;;5.90;;
33794;SDS011;51430;52.242;21.118;2022-07-22T06:23:03;9.70;;;6.30;;
33794;SDS011;51430;52.242;21.118;2022-07-22T06:25:32;8.50;;;5.50;;
33794;SDS011;51430;52.242;21.118;2022-07-22T06:28:10;10.00;;;5.10;;
33794;SDS011;51430;52.242;21.118;2022-07-22T06:30:39;13.50;;;5.50;;
33794;SDS011;51430;52.242;21.118;2022-07-22T06:33:08;10.50;;;4.80;;
33794;SDS011;51430;52.242;21.118;2022-07-22T06:35:40;13.10;;;5.10;;
33794;SDS011;51430;52.242;21.118;2022-07-22T06:38:09;11.70;;;4.70;;
33794;SDS011;51430;52.242;21.118;2022-07-22T06:40:57;11.50;;;4.60;;
33794;SDS011;51430;52.242;21.118;2022-07-22T06:43:26;13.10;;;5.00;;
33794;SDS011;51430;52.242;21.118;2022-07-22T06:45:56;7.30;;;4.70;;
33794;SDS011;51430;52.242;21.118;2022-07-22T06:48:24;9.10;;;4.90;;
33794;SDS011;51430;52.242;21.118;2022-07-22T06:50:53;9.90;;;5.20;;
33794;SDS011;51430;52.242;21.118;2022-07-22T06:53:22;10.80;;;5.10;;
33794;SDS011;51430;52.242;21.118;2022-07-22T06:55:50;11.90;;;5.20;;
33794;SDS011;51430;52.242;21.118;2022-07-22T06:58:18;8.20;;;5.30;;
33794;SDS011;51430;52.242;21.118;2022-07-22T07:00:46;13.50;;;5.00;;
33794;SDS011;51430;52.242;21.118;2022-07-22T07:03:14;11.10;;;5.20;;
33794;SDS011;51430;52.242;21.118;2022-07-22T07:06:03;11.10;;;5.20;;
33794;SDS011;51430;52.242;21.118;2022-07-22T07:08:33;9.50;;;4.80;;
33794;SDS011;51430;52.242;21.118;2022-07-22T07:11:02;13.00;;;4.60;;
33794;SDS011;51430;52.242;21.118;2022-07-22T07:13:30;11.00;;;4.80;;
33794;SDS011;51430;52.242;21.118;2022-07-22T07:15:59;9.30;;;4.40;;
33794;SDS011;51430;52.242;21.118;2022-07-22T07:18:27;17.90;;;5.20;;
33794;SDS011;51430;52.242;21.118;2022-07-22T07:20:55;11.20;;;4.20;;
33794;SDS011;51430;52.242;21.118;2022-07-22T07:23:23;8.40;;;5.60;;
33794;SDS011;51430;52.242;21.118;2022-07-22T07:25:51;10.20;;;4.60;;
33794;SDS011;51430;52.242;21.118;2022-07-22T07:28:20;12.60;;;4.30;;
33794;SDS011;51430;52.242;21.118;2022-07-22T07:30:49;4.40;;;3.50;;
33794;SDS011;51430;52.242;21.118;2022-07-22T07:33:18;9.00;;;4.20;;
33794;SDS011;51430;52.242;21.118;2022-07-22T07:35:46;11.70;;;3.50;;
33794;SDS011;51430;52.242;21.118;2022-07-22T07:38:14;6.00;;;3.60;;
33794;SDS011;51430;52.242;21.118;2022-07-22T07:40:43;4.60;;;3.30;;
33794;SDS011;51430;52.242;21.118;2022-07-22T07:43:11;6.30;;;4.10;;
33794;SDS011;51430;52.242;21.118;2022-07-22T07:45:39;8.00;;;4.00;;
33794;SDS011;51430;52.242;21.118;2022-07-22T07:48:08;7.80;;;3.90;;
33794;SDS011;51430;52.242;21.118;2022-07-22T07:50:36;6.80;;;4.00;;
33794;SDS011;51430;52.242;21.118;2022-07-22T07:53:04;11.20;;;4.00;;
33794;SDS011;51430;52.242;21.118;2022-07-22T07:55:34;9.30;;;3.50;;
33794;SDS011;51430;52.242;21.118;2022-07-22T07:58:06;5.80;;;3.90;;
33794;SDS011;51430;52.242;21.118;2022-07-22T08:00:34;6.70;;;3.70;;
33794;SDS011;51430;52.242;21.118;2022-07-22T08:03:04;10.10;;;4.00;;
33794;SDS011;51430;52.242;21.118;2022-07-22T08:05:34;6.40;;;3.70;;
33794;SDS011;51430;52.242;21.118;2022-07-22T08:08:03;10.70;;;4.00;;
33794;SDS011;51430;52.242;21.118;2022-07-22T08:10:41;15.50;;;4.40;;
33794;SDS011;51430;52.242;21.118;2022-07-22T08:13:28;8.70;;;4.00;;
33794;SDS011;51430;52.242;21.118;2022-07-22T08:15:56;6.80;;;3.70;;
33794;SDS011;51430;52.242;21.118;2022-07-22T08:18:25;6.40;;;4.10;;
33794;SDS011;51430;52.242;21.118;2022-07-22T08:20:54;12.00;;;4.20;;
33794;SDS011;51430;52.242;21.118;2022-07-22T08:23:26;7.50;;;4.10;;
33794;SDS011;51430;52.242;21.118;2022-07-22T08:25:55;10.50;;;4.00;;
33794;SDS011;51430;52.242;21.118;2022-07-22T08:28:24;6.50;;;3.90;;
33794;SDS011;51430;52.242;21.118;2022-07-22T08:30:52;15.50;;;4.40;;
33794;SDS011;51430;52.242;21.118;2022-07-22T08:33:20;8.40;;;3.80;;
33794;SDS011;51430;52.242;21.118;2022-07-22T08:35:48;11.80;;;4.70;;
33794;SDS011;51430;52.242;21.118;2022-07-22T08:38:17;8.20;;;4.10;;
33794;SDS011;51430;52.242;21.118;2022-07-22T08:40:45;9.10;;;4.50;;
33794;SDS011;51430;52.242;21.118;2022-07-22T08:43:13;7.60;;;4.30;;
33794;SDS011;51430;52.242;21.118;2022-07-22T08:45:42;8.10;;;4.40;;
33794;SDS011;51430;52.242;21.118;2022-07-22T08:48:10;9.30;;;4.90;;
33794;SDS011;51430;52.242;21.118;2022-07-22T08:50:38;10.90;;;4.60;;
33794;SDS011;51430;52.242;21.118;2022-07-22T08:53:11;8.90;;;5.00;;
33794;SDS011;51430;52.242;21.118;2022-07-22T08:55:47;6.40;;;4.80;;
33794;SDS011;51430;52.242;21.118;2022-07-22T08:58:16;10.80;;;5.10;;
33794;SDS011;51430;52.242;21.118;2022-07-22T09:00:45;7.80;;;5.80;;
33794;SDS011;51430;52.242;21.118;2022-07-22T09:03:16;10.10;;;5.90;;
33794;SDS011;51430;52.242;21.118;2022-07-22T09:05:53;9.90;;;5.90;;
33794;SDS011;51430;52.242;21.118;2022-07-22T09:08:22;7.40;;;5.20;;
33794;SDS011;51430;52.242;21.118;2022-07-22T09:10:51;13.90;;;6.30;;
33794;SDS011;51430;52.242;21.118;2022-07-22T09:13:19;9.30;;;6.30;;
33794;SDS011;51430;52.242;21.118;2022-07-22T09:15:48;13.00;;;6.40;;
33794;SDS011;51430;52.242;21.118;2022-07-22T09:18:19;10.10;;;7.10;;
33794;SDS011;51430;52.242;21.118;2022-07-22T09:20:47;10.30;;;6.50;;
33794;SDS011;51430;52.242;21.118;2022-07-22T09:23:18;11.80;;;7.10;;
33794;SDS011;51430;52.242;21.118;2022-07-22T09:25:50;11.20;;;7.00;;
33794;SDS011;51430;52.242;21.118;2022-07-22T09:28:19;10.00;;;6.90;;
33794;SDS011;51430;52.242;21.118;2022-07-22T09:30:52;10.20;;;7.20;;
33794;SDS011;51430;52.242;21.118;2022-07-22T09:33:24;10.50;;;6.50;;
33794;SDS011;51430;52.242;21.118;2022-07-22T09:36:02;14.90;;;7.20;;
33794;SDS011;51430;52.242;21.118;2022-07-22T09:38:31;13.90;;;8.00;;
33794;SDS011;51430;52.242;21.118;2022-07-22T09:41:03;12.20;;;7.80;;
33794;SDS011;51430;52.242;21.118;2022-07-22T09:43:32;10.00;;;8.00;;
33794;SDS011;51430;52.242;21.118;2022-07-22T09:46:03;10.40;;;7.70;;
33794;SDS011;51430;52.242;21.118;2022-07-22T09:48:32;12.20;;;7.90;;
33794;SDS011;51430;52.242;21.118;2022-07-22T09:51:00;10.00;;;7.60;;
33794;SDS011;51430;52.242;21.118;2022-07-22T09:53:29;17.10;;;8.70;;
33794;SDS011;51430;52.242;21.118;2022-07-22T09:56:00;14.70;;;7.90;;
33794;SDS011;51430;52.242;21.118;2022-07-22T09:58:30;13.00;;;7.60;;
33794;SDS011;51430;52.242;21.118;2022-07-22T10:00:59;9.60;;;7.70;;
33794;SDS011;51430;52.242;21.118;2022-07-22T10:03:33;9.90;;;7.50;;
33794;SDS011;51430;52.242;21.118;2022-07-22T10:06:05;10.60;;;7.80;;
33794;SDS011;51430;52.242;21.118;2022-07-22T10:08:34;12.20;;;7.90;;
33794;SDS011;51430;52.242;21.118;2022-07-22T10:11:04;10.00;;;7.50;;
33794;SDS011;51430;52.242;21.118;2022-07-22T10:13:34;11.00;;;7.70;;
33794;SDS011;51430;52.242;21.118;2022-07-22T10:16:05;12.10;;;8.30;;
33794;SDS011;51430;52.242;21.118;2022-07-22T10:18:34;11.40;;;7.90;;
33794;SDS011;51430;52.242;21.118;2022-07-22T10:21:07;14.60;;;8.10;;
33794;SDS011;51430;52.242;21.118;2022-07-22T10:23:36;12.40;;;7.60;;
33794;SDS011;51430;52.242;21.118;2022-07-22T10:26:53;9.80;;;6.80;;
33794;SDS011;51430;52.242;21.118;2022-07-22T10:29:24;10.40;;;7.30;;
33794;SDS011;51430;52.242;21.118;2022-07-22T10:45:25;11.10;;;7.10;;
33794;SDS011;51430;52.242;21.118;2022-07-22T10:48:01;11.60;;;7.20;;
33794;SDS011;51430;52.242;21.118;2022-07-22T10:53:14;10.10;;;6.80;;
33794;SDS011;51430;52.242;21.118;2022-07-22T10:55:57;9.20;;;6.60;;
33794;SDS011;51430;52.242;21.118;2022-07-22T10:59:13;10.50;;;7.70;;
33794;SDS011;51430;52.242;21.118;2022-07-22T11:01:44;12.40;;;7.50;;
33794;SDS011;51430;52.242;21.118;2022-07-22T11:04:20;11.30;;;7.70;;
33794;SDS011;51430;52.242;21.118;2022-07-22T11:06:54;13.40;;;7.70;;
33794;SDS011;51430;52.242;21.118;2022-07-22T11:09:30;11.80;;;7.50;;
33794;SDS011;51430;52.242;21.118;2022-07-22T11:12:03;11.90;;;7.70;;
33794;SDS011;51430;52.242;21.118;2022-07-22T11:14:33;12.00;;;7.60;;
33794;SDS011;51430;52.242;21.118;2022-07-22T11:17:07;9.90;;;7.70;;
33794;SDS011;51430;52.242;21.118;2022-07-22T11:19:37;11.30;;;7.00;;
33794;SDS011;51430;52.242;21.118;2022-07-22T11:22:07;7.40;;;6.60;;
33794;SDS011;51430;52.242;21.118;2022-07-22T11:24:37;13.10;;;7.90;;
33794;SDS011;51430;52.242;21.118;2022-07-22T11:27:14;12.10;;;6.50;;
33794;SDS011;51430;52.242;21.118;2022-07-22T11:29:47;7.80;;;7.10;;
33794;SDS011;51430;52.242;21.118;2022-07-22T11:32:19;12.90;;;7.00;;
33794;SDS011;51430;52.242;21.118;2022-07-22T11:34:56;9.40;;;7.00;;
33794;SDS011;51430;52.242;21.118;2022-07-22T11:37:24;13.80;;;7.10;;
33794;SDS011;51430;52.242;21.118;2022-07-22T11:40:01;13.50;;;7.20;;
33794;SDS011;51430;52.242;21.118;2022-07-22T11:42:32;7.60;;;6.50;;
33794;SDS011;51430;52.242;21.118;2022-07-22T11:45:01;13.00;;;7.40;;
33794;SDS011;51430;52.242;21.118;2022-07-22T11:47:30;10.30;;;6.50;;
33794;SDS011;51430;52.242;21.118;2022-07-22T11:49:58;13.10;;;7.00;;
33794;SDS011;51430;52.242;21.118;2022-07-22T11:52:26;12.10;;;6.50;;
33794;SDS011;51430;52.242;21.118;2022-07-22T11:54:54;8.30;;;7.00;;
33794;SDS011;51430;52.242;21.118;2022-07-22T11:57:23;8.30;;;6.20;;
33794;SDS011;51430;52.242;21.118;2022-07-22T11:59:51;14.10;;;6.90;;
33794;SDS011;51430;52.242;21.118;2022-07-22T12:02:19;11.10;;;6.60;;
33794;SDS011;51430;52.242;21.118;2022-07-22T12:04:48;11.10;;;7.50;;
33794;SDS011;51430;52.242;21.118;2022-07-22T12:07:30;8.20;;;6.60;;
33794;SDS011;51430;52.242;21.118;2022-07-22T12:09:58;9.70;;;7.40;;
33794;SDS011;51430;52.242;21.118;2022-07-22T12:12:39;10.10;;;6.60;;
33794;SDS011;51430;52.242;21.118;2022-07-22T12:15:09;10.90;;;7.20;;
33794;SDS011;51430;52.242;21.118;2022-07-22T12:18:13;14.60;;;7.30;;
33794;SDS011;51430;52.242;21.118;2022-07-22T12:20:53;8.10;;;7.10;;
33794;SDS011;51430;52.242;21.118;2022-07-22T12:23:24;12.50;;;7.10;;
33794;SDS011;51430;52.242;21.118;2022-07-22T12:25:55;8.10;;;7.20;;
33794;SDS011;51430;52.242;21.118;2022-07-22T12:28:24;9.80;;;6.90;;
33794;SDS011;51430;52.242;21.118;2022-07-22T12:30:53;13.90;;;7.80;;
33794;SDS011;51430;52.242;21.118;2022-07-22T12:33:23;11.90;;;7.80;;
33794;SDS011;51430;52.242;21.118;2022-07-22T12:36:01;12.60;;;7.90;;
33794;SDS011;51430;52.242;21.118;2022-07-22T12:38:32;14.60;;;7.90;;
33794;SDS011;51430;52.242;21.118;2022-07-22T12:41:21;13.50;;;7.70;;
33794;SDS011;51430;52.242;21.118;2022-07-22T12:43:50;9.50;;;8.50;;
33794;SDS011;51430;52.242;21.118;2022-07-22T12:46:19;14.10;;;8.50;;
33794;SDS011;51430;52.242;21.118;2022-07-22T12:48:52;10.30;;;8.80;;
33794;SDS011;51430;52.242;21.118;2022-07-22T12:51:21;12.50;;;8.20;;
33794;SDS011;51430;52.242;21.118;2022-07-22T12:53:50;8.30;;;7.20;;
33794;SDS011;51430;52.242;21.118;2022-07-22T12:56:19;9.40;;;8.00;;
33794;SDS011;51430;52.242;21.118;2022-07-22T12:58:48;11.60;;;8.10;;
33794;SDS011;51430;52.242;21.118;2022-07-22T13:01:16;9.50;;;7.90;;
33794;SDS011;51430;52.242;21.118;2022-07-22T13:03:45;9.60;;;7.70;;
33794;SDS011;51430;52.242;21.118;2022-07-22T13:06:13;9.90;;;7.60;;
33794;SDS011;51430;52.242;21.118;2022-07-22T13:08:41;12.40;;;7.90;;
33794;SDS011;51430;52.242;21.118;2022-07-22T13:11:13;11.60;;;7.80;;
33794;SDS011;51430;52.242;21.118;2022-07-22T13:13:42;10.90;;;7.00;;
33794;SDS011;51430;52.242;21.118;2022-07-22T13:16:20;7.60;;;6.90;;
33794;SDS011;51430;52.242;21.118;2022-07-22T13:18:51;8.50;;;7.00;;
33794;SDS011;51430;52.242;21.118;2022-07-22T13:21:20;8.40;;;6.80;;
33794;SDS011;51430;52.242;21.118;2022-07-22T13:23:48;7.60;;;6.90;;
33794;SDS011;51430;52.242;21.118;2022-07-22T13:26:16;8.30;;;6.30;;
33794;SDS011;51430;52.242;21.118;2022-07-22T13:28:44;8.90;;;6.90;;
33794;SDS011;51430;52.242;21.118;2022-07-22T13:31:12;8.70;;;5.90;;
33794;SDS011;51430;52.242;21.118;2022-07-22T13:33:40;9.70;;;6.40;;
33794;SDS011;51430;52.242;21.118;2022-07-22T13:36:08;9.40;;;6.40;;
33794;SDS011;51430;52.242;21.118;2022-07-22T13:38:36;7.50;;;6.80;;
33794;SDS011;51430;52.242;21.118;2022-07-22T13:41:04;7.70;;;6.30;;
33794;SDS011;51430;52.242;21.118;2022-07-22T13:43:44;8.30;;;6.60;;
33794;SDS011;51430;52.242;21.118;2022-07-22T13:46:13;7.30;;;6.60;;
33794;SDS011;51430;52.242;21.118;2022-07-22T13:48:42;8.10;;;6.30;;
33794;SDS011;51430;52.242;21.118;2022-07-22T13:51:10;7.40;;;6.70;;
33794;SDS011;51430;52.242;21.118;2022-07-22T13:53:39;7.20;;;6.60;;
33794;SDS011;51430;52.242;21.118;2022-07-22T13:56:08;10.80;;;7.20;;
33794;SDS011;51430;52.242;21.118;2022-07-22T13:58:38;9.00;;;6.20;;
33794;SDS011;51430;52.242;21.118;2022-07-22T14:01:08;11.50;;;6.40;;
33794;SDS011;51430;52.242;21.118;2022-07-22T14:03:37;8.30;;;6.60;;
33794;SDS011;51430;52.242;21.118;2022-07-22T14:06:06;11.40;;;6.60;;
33794;SDS011;51430;52.242;21.118;2022-07-22T14:08:36;7.20;;;6.50;;
33794;SDS011;51430;52.242;21.118;2022-07-22T14:11:07;8.30;;;7.00;;
33794;SDS011;51430;52.242;21.118;2022-07-22T14:13:39;7.10;;;6.40;;
33794;SDS011;51430;52.242;21.118;2022-07-22T14:16:08;7.70;;;6.50;;
33794;SDS011;51430;52.242;21.118;2022-07-22T14:19:25;7.00;;;6.40;;
33794;SDS011;51430;52.242;21.118;2022-07-22T14:21:53;10.90;;;6.90;;
33794;SDS011;51430;52.242;21.118;2022-07-22T14:24:22;9.60;;;6.30;;
33794;SDS011;51430;52.242;21.118;2022-07-22T14:26:50;7.70;;;6.60;;
33794;SDS011;51430;52.242;21.118;2022-07-22T14:29:18;9.00;;;7.00;;
33794;SDS011;51430;52.242;21.118;2022-07-22T14:31:49;9.70;;;7.20;;
33794;SDS011;51430;52.242;21.118;2022-07-22T14:34:17;8.50;;;6.70;;
33794;SDS011;51430;52.242;21.118;2022-07-22T14:36:47;12.10;;;6.90;;
33794;SDS011;51430;52.242;21.118;2022-07-22T14:39:15;7.70;;;7.10;;
33794;SDS011;51430;52.242;21.118;2022-07-22T14:41:43;8.40;;;7.70;;
33794;SDS011;51430;52.242;21.118;2022-07-22T14:44:14;9.60;;;7.10;;
33794;SDS011;51430;52.242;21.118;2022-07-22T14:46:42;9.30;;;7.70;;
33794;SDS011;51430;52.242;21.118;2022-07-22T14:49:10;8.30;;;7.40;;
33794;SDS011;51430;52.242;21.118;2022-07-22T14:51:43;11.50;;;6.90;;
33794;SDS011;51430;52.242;21.118;2022-07-22T14:54:12;11.00;;;7.20;;
33794;SDS011;51430;52.242;21.118;2022-07-22T14:56:40;11.20;;;7.70;;